createdAt,value
2023-05-02T00:00:45.848Z,100.00
2023-05-02T00:02:53.575Z,100.00
2023-05-02T00:04:58.521Z,100.00
2023-05-02T00:07:03.429Z,100.00
2023-05-02T00:09:08.014Z,100.00
2023-05-02T00:11:12.782Z,100.00
2023-05-02T00:13:17.363Z,100.00
2023-05-02T00:15:22.021Z,100.00
2023-05-02T00:17:26.714Z,100.00
2023-05-02T00:19:34.043Z,100.00
2023-05-02T00:21:38.996Z,100.00
2023-05-02T00:23:43.604Z,100.00
2023-05-02T00:25:48.733Z,100.00
2023-05-02T00:27:53.489Z,100.00
2023-05-02T00:29:58.643Z,100.00
2023-05-02T00:32:03.704Z,100.00
2023-05-02T00:34:08.276Z,100.00
2023-05-02T00:36:19.065Z,100.00
2023-05-02T00:38:23.626Z,100.00
2023-05-02T00:40:28.375Z,100.00
2023-05-02T00:42:34.736Z,100.00
2023-05-02T00:44:40.736Z,100.00
2023-05-02T00:46:45.409Z,100.00
2023-05-02T00:48:50.280Z,100.00
2023-05-02T00:50:55.230Z,100.00
2023-05-02T00:53:03.976Z,100.00
2023-05-02T00:55:09.054Z,100.00
2023-05-02T00:57:13.766Z,100.00
2023-05-02T00:59:18.948Z,100.00
2023-05-02T01:01:29.291Z,100.00
2023-05-02T01:03:40.000Z,100.00
2023-05-02T01:05:47.822Z,100.00
2023-05-02T01:08:10.977Z,100.00
2023-05-02T01:10:26.553Z,100.00
2023-05-02T01:12:34.228Z,100.00
2023-05-02T01:14:42.011Z,100.00
2023-05-02T01:16:48.290Z,100.00
2023-05-02T01:18:53.212Z,100.00
2023-05-02T01:21:01.517Z,100.00
2023-05-02T01:23:09.737Z,100.00
2023-05-02T01:25:32.797Z,100.00
2023-05-02T01:27:40.318Z,100.00
2023-05-02T01:29:48.203Z,100.00
2023-05-02T01:31:53.902Z,100.00
2023-05-02T01:33:59.863Z,100.00
2023-05-02T01:36:04.998Z,100.00
2023-05-02T01:38:10.198Z,100.00
2023-05-02T01:40:16.949Z,100.00
2023-05-02T01:42:23.101Z,100.00
2023-05-02T01:44:28.507Z,100.00
2023-05-02T01:46:38.406Z,100.00
2023-05-02T01:48:44.378Z,100.00
2023-05-02T01:50:50.590Z,100.00
2023-05-02T01:52:56.422Z,100.00
2023-05-02T01:55:02.177Z,100.00
2023-05-02T01:57:09.045Z,100.00
2023-05-02T01:59:15.273Z,100.00
2023-05-02T02:01:20.894Z,100.00
2023-05-02T02:03:29.374Z,100.00
2023-05-02T02:05:34.215Z,100.00
2023-05-02T02:07:40.604Z,100.00
2023-05-02T02:09:45.394Z,100.00
2023-05-02T02:11:52.526Z,100.00
2023-05-02T02:14:02.073Z,100.00
2023-05-02T02:16:07.704Z,100.00
2023-05-02T02:18:14.440Z,100.00
2023-05-02T02:20:21.943Z,100.00
2023-05-02T02:22:28.557Z,100.00
2023-05-02T02:24:33.720Z,100.00
2023-05-02T02:26:39.421Z,100.00
2023-05-02T02:28:44.046Z,100.00
2023-05-02T02:30:48.891Z,100.00
2023-05-02T02:32:53.889Z,100.00
2023-05-02T02:34:59.710Z,100.00
2023-05-02T02:37:10.101Z,100.00
2023-05-02T02:39:20.010Z,100.00
2023-05-02T02:41:30.205Z,100.00
2023-05-02T02:43:39.186Z,100.00
2023-05-02T02:45:51.397Z,100.00
2023-05-02T02:47:59.563Z,100.00
2023-05-02T02:50:11.831Z,100.00
2023-05-02T02:52:21.364Z,100.00
2023-05-02T02:54:32.318Z,100.00
2023-05-02T02:56:40.145Z,100.00
2023-05-02T02:58:49.201Z,100.00
2023-05-02T03:00:54.527Z,100.00
2023-05-02T03:02:59.574Z,100.00
2023-05-02T03:05:05.593Z,100.00
2023-05-02T03:07:10.855Z,100.00
2023-05-02T03:09:21.546Z,100.00
2023-05-02T03:11:29.638Z,100.00
2023-05-02T03:13:35.661Z,100.00
2023-05-02T03:16:03.240Z,100.00
2023-05-02T03:18:08.464Z,100.00
2023-05-02T03:20:13.581Z,100.00
2023-05-02T03:22:18.360Z,100.00
2023-05-02T03:24:27.724Z,100.00
2023-05-02T03:26:32.937Z,100.00
2023-05-02T03:28:38.021Z,100.00
2023-05-02T03:30:43.881Z,100.00
2023-05-02T03:32:48.654Z,100.00
2023-05-02T03:34:58.639Z,100.00
2023-05-02T03:37:08.211Z,100.00
2023-05-02T03:39:12.946Z,100.00
2023-05-02T03:41:21.149Z,100.00
2023-05-02T03:43:31.824Z,100.00
2023-05-02T03:45:37.400Z,100.00
2023-05-02T03:47:42.379Z,100.00
2023-05-02T03:49:47.060Z,100.00
2023-05-02T03:51:53.131Z,100.00
2023-05-02T03:54:03.384Z,100.00
2023-05-02T03:56:08.717Z,100.00
2023-05-02T03:58:25.496Z,100.00
2023-05-02T04:00:30.425Z,100.00
2023-05-02T04:02:40.635Z,100.00
2023-05-02T04:04:52.317Z,100.00
2023-05-02T04:06:59.668Z,100.00
2023-05-02T04:09:04.428Z,100.00
2023-05-02T04:11:16.543Z,100.00
2023-05-02T04:13:21.266Z,100.00
2023-05-02T04:15:29.879Z,100.00
2023-05-02T04:17:34.719Z,100.00
2023-05-02T04:19:39.948Z,100.00
2023-05-02T04:21:44.715Z,100.00
2023-05-02T04:23:50.106Z,100.00
2023-05-02T04:25:56.463Z,100.00
2023-05-02T04:28:08.768Z,100.00
2023-05-02T04:30:14.047Z,100.00
2023-05-02T04:32:25.054Z,100.00
2023-05-02T04:34:31.200Z,100.00
2023-05-02T04:36:37.288Z,100.00
2023-05-02T04:38:42.525Z,100.00
2023-05-02T04:40:47.816Z,100.00
2023-05-02T04:42:52.541Z,100.00
2023-05-02T04:45:00.285Z,100.00
2023-05-02T04:47:05.337Z,100.00
2023-05-02T04:49:13.132Z,100.00
2023-05-02T04:51:17.875Z,100.00
2023-05-02T04:53:26.182Z,100.00
2023-05-02T04:55:31.455Z,100.00
2023-05-02T04:57:36.211Z,100.00
2023-05-02T04:59:41.503Z,100.00
2023-05-02T05:01:47.020Z,100.00
2023-05-02T05:03:51.940Z,100.00
2023-05-02T05:05:59.652Z,100.00
2023-05-02T05:08:05.714Z,100.00
2023-05-02T05:10:14.169Z,100.00
2023-05-02T05:12:22.799Z,100.00
2023-05-02T05:14:27.509Z,100.00
2023-05-02T05:16:33.834Z,100.00
2023-05-02T05:18:40.931Z,100.00
2023-05-02T05:20:47.921Z,100.00
2023-05-02T05:22:55.209Z,100.00
2023-05-02T05:25:00.862Z,100.00
2023-05-02T05:27:08.692Z,100.00
2023-05-02T05:29:13.953Z,100.00
2023-05-02T05:31:20.309Z,100.00
2023-05-02T05:33:29.549Z,100.00
2023-05-02T05:35:34.669Z,100.00
2023-05-02T05:37:40.600Z,100.00
2023-05-02T05:39:51.255Z,100.00
2023-05-02T05:41:56.553Z,100.00
2023-05-02T05:44:02.256Z,100.00
2023-05-02T05:46:08.450Z,100.00
2023-05-02T05:48:14.848Z,100.00
2023-05-02T05:50:22.800Z,100.00
2023-05-02T05:52:27.814Z,100.00
2023-05-02T05:54:33.693Z,100.00
2023-05-02T05:56:41.695Z,100.00
2023-05-02T05:58:52.551Z,100.00
2023-05-02T06:00:57.185Z,100.00
2023-05-02T06:03:02.271Z,100.00
2023-05-02T06:05:09.955Z,100.00
2023-05-02T06:07:15.885Z,100.00
2023-05-02T06:09:20.779Z,100.00
2023-05-02T06:11:26.401Z,100.00
2023-05-02T06:13:33.653Z,100.00
2023-05-02T06:15:38.397Z,100.00
2023-05-02T06:17:44.507Z,100.00
2023-05-02T06:21:06.758Z,100.00
2023-05-02T06:23:11.797Z,100.00
2023-05-02T06:25:16.695Z,100.00
2023-05-02T06:27:22.356Z,100.00
2023-05-02T06:29:27.211Z,100.00
2023-05-02T06:31:32.278Z,100.00
2023-05-02T06:33:37.485Z,100.00
2023-05-02T06:35:42.410Z,100.00
2023-05-02T06:37:49.877Z,100.00
2023-05-02T06:39:54.806Z,100.00
2023-05-02T06:42:00.898Z,100.00
2023-05-02T06:44:07.496Z,100.00
2023-05-02T06:46:12.376Z,100.00
2023-05-02T06:48:17.513Z,100.00
2023-05-02T06:50:23.368Z,100.00
2023-05-02T06:52:29.027Z,100.00
2023-05-02T06:54:36.596Z,100.00
2023-05-02T06:56:41.634Z,100.00
2023-05-02T06:58:46.551Z,100.00
2023-05-02T07:00:51.657Z,100.00
2023-05-02T07:02:56.722Z,100.00
2023-05-02T07:05:01.782Z,100.00
2023-05-02T07:07:06.874Z,100.00
2023-05-02T07:09:11.951Z,100.00
2023-05-02T07:11:19.549Z,100.00
2023-05-02T07:13:24.617Z,100.00
2023-05-02T07:15:32.391Z,100.00
2023-05-02T07:17:37.550Z,100.00
2023-05-02T07:19:43.356Z,100.00
2023-05-02T07:21:50.270Z,100.00
2023-05-02T07:23:57.744Z,100.00
2023-05-02T07:26:05.584Z,100.00
2023-05-02T07:28:13.964Z,100.00
2023-05-02T07:30:19.007Z,100.00
2023-05-02T07:32:25.314Z,100.00
2023-05-02T07:34:30.700Z,100.00
2023-05-02T07:36:35.804Z,100.00
2023-05-02T07:38:40.783Z,100.00
2023-05-02T07:40:47.100Z,100.00
2023-05-02T07:42:52.252Z,100.00
2023-05-02T07:45:00.002Z,100.00
2023-05-02T07:47:05.123Z,100.00
2023-05-02T07:49:09.990Z,100.00
2023-05-02T07:51:16.136Z,100.00
2023-05-02T07:53:21.079Z,100.00
2023-05-02T07:55:26.690Z,100.00
2023-05-02T07:57:31.701Z,100.00
2023-05-02T07:59:36.674Z,100.00
2023-05-02T08:01:45.004Z,100.00
2023-05-02T08:03:50.336Z,100.00
2023-05-02T08:05:55.722Z,100.00
2023-05-02T08:08:02.092Z,100.00
2023-05-02T08:10:06.970Z,100.00
2023-05-02T08:12:12.003Z,100.00
2023-05-02T08:14:18.121Z,100.00
2023-05-02T08:16:23.451Z,100.00
2023-05-02T08:18:31.242Z,100.00
2023-05-02T08:20:36.641Z,100.00
2023-05-02T08:22:41.805Z,100.00
2023-05-02T08:24:46.912Z,100.00
2023-05-02T08:26:51.839Z,100.00
2023-05-02T08:28:57.223Z,100.00
2023-05-02T08:31:02.232Z,100.00
2023-05-02T08:33:07.381Z,100.00
2023-05-02T08:35:14.737Z,100.00
2023-05-02T08:37:19.798Z,100.00
2023-05-02T08:39:24.720Z,100.00
2023-05-02T08:41:32.617Z,100.00
2023-05-02T08:43:38.270Z,100.00
2023-05-02T08:45:45.385Z,100.00
2023-05-02T08:47:50.777Z,100.00
2023-05-02T08:49:58.514Z,100.00
2023-05-02T08:52:08.600Z,100.00
2023-05-02T08:54:14.209Z,100.00
2023-05-02T08:56:19.232Z,100.00
2023-05-02T08:58:24.306Z,100.00
2023-05-02T09:00:30.566Z,100.00
2023-05-02T09:02:54.643Z,100.00
2023-05-02T09:05:04.319Z,100.00
2023-05-02T09:07:11.901Z,100.00
2023-05-02T09:09:19.010Z,100.00
2023-05-02T09:11:25.089Z,100.00
2023-05-02T09:13:38.281Z,100.00
2023-05-02T09:15:43.493Z,100.00
2023-05-02T09:17:50.704Z,100.00
2023-05-02T09:20:03.658Z,100.00
2023-05-02T09:22:11.218Z,100.00
2023-05-02T09:24:21.065Z,100.00
2023-05-02T09:26:32.499Z,100.00
2023-05-02T09:28:42.322Z,100.00
2023-05-02T09:30:48.199Z,100.00
2023-05-02T09:32:55.984Z,100.00
2023-05-02T09:35:11.339Z,100.00
2023-05-02T09:37:37.354Z,100.00
2023-05-02T09:39:42.300Z,100.00
2023-05-02T09:41:48.555Z,100.00
2023-05-02T09:44:00.011Z,100.00
2023-05-02T09:46:06.135Z,100.00
2023-05-02T09:48:12.401Z,100.00
2023-05-02T09:50:35.758Z,100.00
2023-05-02T09:52:43.282Z,100.00
2023-05-02T09:54:50.839Z,100.00
2023-05-02T09:56:57.465Z,100.00
2023-05-02T09:59:23.471Z,100.00
2023-05-02T10:01:28.513Z,100.00
2023-05-02T10:03:33.623Z,100.00
2023-05-02T10:05:39.700Z,100.00
2023-05-02T10:07:47.591Z,100.00
2023-05-02T10:09:54.537Z,100.00
2023-05-02T10:11:59.913Z,100.00
2023-05-02T10:14:06.497Z,100.00
2023-05-02T10:16:13.342Z,100.00
2023-05-02T10:18:24.565Z,100.00
2023-05-02T10:20:34.472Z,100.00
2023-05-02T10:22:39.649Z,100.00
2023-05-02T10:24:47.134Z,100.00
2023-05-02T10:26:53.146Z,100.00
2023-05-02T10:28:59.519Z,100.00
2023-05-02T10:31:06.046Z,100.00
2023-05-02T10:33:11.167Z,100.00
2023-05-02T10:35:16.293Z,100.00
2023-05-02T10:37:22.316Z,100.00
2023-05-02T10:39:27.489Z,100.00
2023-05-02T10:41:36.498Z,100.00
2023-05-02T10:43:42.005Z,100.00
2023-05-02T10:45:47.017Z,100.00
2023-05-02T10:47:51.719Z,100.00
2023-05-02T10:49:58.071Z,100.00
2023-05-02T10:52:22.996Z,100.00
2023-05-02T10:54:30.574Z,100.00
2023-05-02T10:56:38.162Z,100.00
2023-05-02T10:58:43.277Z,100.00
2023-05-02T11:00:48.408Z,100.00
2023-05-02T11:02:53.191Z,100.00
2023-05-02T11:05:05.592Z,100.00
2023-05-02T11:07:21.377Z,100.00
2023-05-02T11:09:43.963Z,100.00
2023-05-02T11:11:52.862Z,100.00
2023-05-02T11:13:57.857Z,100.00
2023-05-02T11:16:03.027Z,100.00
2023-05-02T11:18:09.218Z,100.00
2023-05-02T11:20:32.561Z,100.00
2023-05-02T11:22:37.613Z,100.00
2023-05-02T11:24:44.728Z,100.00
2023-05-02T11:26:52.895Z,100.00
2023-05-02T11:28:57.796Z,100.00
2023-05-02T11:31:03.017Z,100.00
2023-05-02T11:33:21.094Z,100.00
2023-05-02T11:35:27.416Z,100.00
2023-05-02T11:37:32.672Z,100.00
2023-05-02T11:39:37.787Z,100.00
2023-05-02T11:41:42.724Z,100.00
2023-05-02T11:43:50.427Z,100.00
2023-05-02T11:45:56.644Z,100.00
2023-05-02T11:48:01.892Z,100.00
2023-05-02T11:50:08.308Z,100.00
2023-05-02T11:52:13.387Z,100.00
2023-05-02T11:54:22.135Z,100.00
2023-05-02T11:56:27.535Z,100.00
2023-05-02T11:58:34.138Z,100.00
2023-05-02T12:00:41.951Z,100.00
2023-05-02T12:02:49.270Z,100.00
2023-05-02T12:04:54.307Z,100.00
2023-05-02T12:06:59.689Z,100.00
2023-05-02T12:09:11.620Z,100.00
2023-05-02T12:11:18.258Z,100.00
2023-05-02T12:13:24.933Z,100.00
2023-05-02T12:15:29.884Z,100.00
2023-05-02T12:17:40.370Z,100.00
2023-05-02T12:19:45.548Z,100.00
2023-05-02T12:21:50.872Z,100.00
2023-05-02T12:23:56.520Z,100.00
2023-05-02T12:26:01.891Z,100.00
2023-05-02T12:28:07.557Z,100.00
2023-05-02T12:30:27.976Z,100.00
2023-05-02T12:32:34.094Z,100.00
2023-05-02T12:34:42.439Z,100.00
2023-05-02T12:36:47.982Z,100.00
2023-05-02T12:38:55.037Z,100.00
2023-05-02T12:41:00.465Z,100.00
2023-05-02T12:43:10.802Z,100.00
2023-05-02T12:45:20.832Z,100.00
2023-05-02T12:47:26.695Z,100.00
2023-05-02T12:49:31.631Z,100.00
2023-05-02T12:51:39.705Z,100.00
2023-05-02T12:53:48.201Z,100.00
2023-05-02T12:56:05.127Z,100.00
2023-05-02T12:58:13.370Z,100.00
2023-05-02T13:00:19.953Z,100.00
2023-05-02T13:02:26.126Z,100.00
2023-05-02T13:04:37.725Z,100.00
2023-05-02T13:06:46.991Z,100.00
2023-05-02T13:08:52.171Z,100.00
2023-05-02T13:10:57.023Z,100.00
2023-05-02T13:13:01.898Z,100.00
2023-05-02T13:15:07.641Z,100.00
2023-05-02T13:17:12.795Z,100.00
2023-05-02T13:19:17.532Z,100.00
2023-05-02T13:21:22.447Z,100.00
2023-05-02T13:23:29.934Z,100.00
2023-05-02T13:25:34.862Z,100.00
2023-05-02T13:27:41.325Z,100.00
2023-05-02T13:29:46.312Z,100.00
2023-05-02T13:31:51.280Z,100.00
2023-05-02T13:33:56.350Z,100.00
2023-05-02T13:36:01.498Z,100.00
2023-05-02T13:38:06.327Z,100.00
2023-05-02T13:40:15.277Z,100.00
2023-05-02T13:42:20.346Z,100.00
2023-05-02T13:44:25.752Z,100.00
2023-05-02T13:46:36.566Z,100.00
2023-05-02T13:48:41.763Z,100.00
2023-05-02T13:50:46.722Z,100.00
2023-05-02T13:52:51.946Z,100.00
2023-05-02T13:54:57.418Z,100.00
2023-05-02T13:57:05.805Z,100.00
2023-05-02T13:59:11.419Z,100.00
2023-05-02T14:01:17.048Z,100.00
2023-05-02T14:03:22.801Z,100.00
2023-05-02T14:05:27.788Z,100.00
2023-05-02T14:07:32.675Z,100.00
2023-05-02T14:09:37.606Z,100.00
2023-05-02T14:11:44.503Z,100.00
2023-05-02T14:13:52.026Z,100.00
2023-05-02T14:15:58.948Z,100.00
2023-05-02T14:18:04.127Z,100.00
2023-05-02T14:20:10.814Z,100.00
2023-05-02T14:22:16.431Z,100.00
2023-05-02T14:24:21.475Z,100.00
2023-05-02T14:26:26.614Z,100.00
2023-05-02T14:28:31.719Z,100.00
2023-05-02T14:30:39.331Z,100.00
2023-05-02T14:32:44.425Z,100.00
2023-05-02T14:34:49.187Z,100.00
2023-05-02T14:36:54.239Z,100.00
2023-05-02T14:38:59.236Z,100.00
2023-05-02T14:41:06.057Z,100.00
2023-05-02T14:43:12.466Z,100.00
2023-05-02T14:45:17.663Z,100.00
2023-05-02T14:47:25.654Z,100.00
2023-05-02T14:49:30.954Z,100.00
2023-05-02T14:51:35.886Z,100.00
2023-05-02T14:53:40.771Z,100.00
2023-05-02T14:55:46.153Z,100.00
2023-05-02T14:57:51.361Z,100.00
2023-05-02T14:59:56.315Z,100.00
2023-05-02T15:02:02.118Z,89.84
2023-05-02T15:04:09.831Z,85.78
2023-05-02T15:06:15.364Z,86.22
2023-05-02T15:08:20.614Z,87.50
2023-05-02T15:10:25.583Z,87.59
2023-05-02T15:12:30.499Z,91.23
2023-05-02T15:14:35.475Z,88.86
2023-05-02T15:16:40.348Z,89.08
2023-05-02T15:18:45.582Z,92.38
2023-05-02T15:20:53.292Z,89.21
2023-05-02T15:22:58.995Z,91.22
2023-05-02T15:25:05.376Z,87.64
2023-05-02T15:27:10.677Z,91.91
2023-05-02T15:29:15.350Z,86.78
2023-05-02T15:31:20.312Z,88.09
2023-05-02T15:33:25.066Z,87.63
2023-05-02T15:35:30.030Z,87.57
2023-05-02T15:37:37.408Z,89.74
2023-05-02T15:39:42.471Z,90.49
2023-05-02T15:41:48.027Z,93.42
2023-05-02T15:43:53.117Z,93.02
2023-05-02T15:46:00.426Z,91.49
2023-05-02T15:48:05.431Z,88.96
2023-05-02T15:50:10.978Z,87.63
2023-05-02T15:52:15.947Z,86.47
2023-05-02T15:54:23.267Z,89.19
2023-05-02T15:56:29.325Z,89.61
2023-05-02T15:58:34.980Z,88.44
2023-05-02T16:00:39.779Z,79.65
2023-05-02T16:02:44.993Z,82.03
2023-05-02T16:04:49.951Z,83.42
2023-05-02T16:06:57.521Z,80.68
2023-05-02T16:09:03.614Z,84.38
2023-05-02T16:11:11.374Z,85.17
2023-05-02T16:13:16.332Z,86.53
2023-05-02T16:15:21.375Z,83.71
2023-05-02T16:17:26.096Z,85.67
2023-05-02T16:19:31.397Z,86.62
2023-05-02T16:21:36.447Z,90.14
2023-05-02T16:23:41.123Z,91.25
2023-05-02T16:25:46.171Z,94.18
2023-05-02T16:27:53.713Z,94.90
2023-05-02T16:29:58.695Z,97.68
2023-05-02T16:32:03.690Z,99.76
2023-05-02T16:34:09.375Z,99.24
2023-05-02T16:36:14.895Z,99.99
2023-05-02T16:38:19.856Z,100.00
2023-05-02T16:40:26.246Z,100.00
2023-05-02T16:42:33.221Z,100.00
2023-05-02T16:44:40.695Z,100.00
2023-05-02T16:46:45.742Z,100.00
2023-05-02T16:48:50.422Z,100.00
2023-05-02T16:50:55.421Z,100.00
2023-05-02T16:53:00.380Z,100.00
2023-05-02T16:55:05.222Z,100.00
2023-05-02T16:57:10.999Z,100.00
2023-05-02T16:59:16.068Z,100.00
2023-05-02T17:01:23.912Z,100.00
2023-05-02T17:03:29.529Z,100.00
2023-05-02T17:05:34.854Z,100.00
2023-05-02T17:07:40.189Z,100.00
2023-05-02T17:09:45.496Z,100.00
2023-05-02T17:11:50.471Z,100.00
2023-05-02T17:13:55.411Z,100.00
2023-05-02T17:16:01.242Z,100.00
2023-05-02T17:18:08.875Z,100.00
2023-05-02T17:20:14.854Z,100.00
2023-05-02T17:22:21.530Z,100.00
2023-05-02T17:24:26.860Z,100.00
2023-05-02T17:26:31.951Z,100.00
2023-05-02T17:28:36.849Z,100.00
2023-05-02T17:30:41.958Z,100.00
2023-05-02T17:32:46.808Z,100.00
2023-05-02T17:34:55.406Z,100.00
2023-05-02T17:37:01.236Z,100.00
2023-05-02T17:39:06.742Z,100.00
2023-05-02T17:41:11.785Z,100.00
2023-05-02T17:43:16.946Z,100.00
2023-05-02T17:45:22.036Z,100.00
2023-05-02T17:47:26.954Z,100.00
2023-05-02T17:49:32.332Z,100.00
2023-05-02T17:51:40.033Z,100.00
2023-05-02T17:53:44.953Z,100.00
2023-05-02T17:55:49.887Z,100.00
2023-05-02T17:57:54.692Z,100.00
2023-05-02T18:00:00.233Z,100.00
2023-05-02T18:02:07.082Z,100.00
2023-05-02T18:04:15.065Z,100.00
2023-05-02T18:06:21.310Z,100.00
2023-05-02T18:08:31.358Z,100.00
2023-05-02T18:10:39.304Z,100.00
2023-05-02T18:12:44.197Z,100.00
2023-05-02T18:14:49.432Z,100.00
2023-05-02T18:16:54.327Z,100.00
2023-05-02T18:18:59.225Z,100.00
2023-05-02T18:21:04.134Z,100.00
2023-05-02T18:23:09.124Z,100.00
2023-05-02T18:25:16.696Z,100.00
2023-05-02T18:27:21.643Z,100.00
2023-05-02T18:29:26.926Z,100.00
2023-05-02T18:31:32.256Z,100.00
2023-05-02T18:33:37.279Z,100.00
2023-05-02T18:35:47.307Z,100.00
2023-05-02T18:37:52.723Z,100.00
2023-05-02T18:39:57.840Z,100.00
2023-05-02T18:42:06.586Z,100.00
2023-05-02T18:44:12.229Z,100.00
2023-05-02T18:46:17.171Z,100.00
2023-05-02T18:48:22.412Z,100.00
2023-05-02T18:50:27.040Z,100.00
2023-05-02T18:52:32.588Z,100.00
2023-05-02T18:54:37.847Z,100.00
2023-05-02T18:56:43.576Z,100.00
2023-05-02T18:58:54.897Z,100.00
2023-05-02T19:00:59.960Z,100.00
2023-05-02T19:03:04.917Z,100.00
2023-05-02T19:05:10.960Z,100.00
2023-05-02T19:07:15.937Z,100.00
2023-05-02T19:09:20.861Z,100.00
2023-05-02T19:11:26.563Z,100.00
2023-05-02T19:13:32.652Z,100.00
2023-05-02T19:15:40.682Z,100.00
2023-05-02T19:17:46.291Z,100.00
2023-05-02T19:19:54.402Z,100.00
2023-05-02T19:22:02.504Z,100.00
2023-05-02T19:24:08.020Z,100.00
2023-05-02T19:26:13.929Z,100.00
2023-05-02T19:28:19.940Z,100.00
2023-05-02T19:30:25.028Z,100.00
2023-05-02T19:32:32.369Z,100.00
2023-05-02T19:34:38.277Z,100.00
2023-05-02T19:36:43.155Z,100.00
2023-05-02T19:38:51.326Z,100.00
2023-05-02T19:40:56.224Z,100.00
2023-05-02T19:43:01.226Z,100.00
2023-05-02T19:45:06.680Z,100.00
2023-05-02T19:47:11.598Z,100.00
2023-05-02T19:49:19.399Z,100.00
2023-05-02T19:51:25.943Z,100.00
2023-05-02T19:53:30.877Z,100.00
2023-05-02T19:55:35.806Z,100.00
2023-05-02T19:57:41.512Z,100.00
2023-05-02T19:59:46.785Z,100.00
2023-05-02T20:01:51.831Z,100.00
2023-05-02T20:03:56.770Z,100.00
2023-05-02T20:06:04.340Z,100.00
2023-05-02T20:08:09.356Z,100.00
2023-05-02T20:10:14.351Z,100.00
2023-05-02T20:12:19.356Z,100.00
2023-05-02T20:14:24.347Z,100.00
2023-05-02T20:16:31.618Z,100.00
2023-05-02T20:18:36.607Z,100.00
2023-05-02T20:20:42.080Z,100.00
2023-05-02T20:22:49.562Z,100.00
2023-05-02T20:24:54.443Z,100.00
2023-05-02T20:26:59.475Z,100.00
2023-05-02T20:29:04.971Z,100.00
2023-05-02T20:31:09.996Z,100.00
2023-05-02T20:33:16.736Z,100.00
2023-05-02T20:35:22.954Z,100.00
2023-05-02T20:37:27.818Z,100.00
2023-05-02T20:39:35.559Z,100.00
2023-05-02T20:41:40.483Z,100.00
2023-05-02T20:43:47.337Z,100.00
2023-05-02T20:45:52.401Z,100.00
2023-05-02T20:47:57.417Z,100.00
2023-05-02T20:50:02.883Z,100.00
2023-05-02T20:52:08.627Z,100.00
2023-05-02T20:54:13.705Z,100.00
2023-05-02T20:56:21.222Z,100.00
2023-05-02T20:58:26.511Z,100.00
2023-05-02T21:00:31.768Z,100.00
2023-05-02T21:02:36.458Z,100.00
2023-05-02T21:04:42.369Z,100.00
2023-05-02T21:06:47.486Z,100.00
2023-05-02T21:08:55.296Z,100.00
2023-05-02T21:11:00.335Z,100.00
2023-05-02T21:13:07.848Z,100.00
2023-05-02T21:15:14.571Z,100.00
2023-05-02T21:17:19.510Z,100.00
2023-05-02T21:19:24.456Z,100.00
2023-05-02T21:21:29.413Z,100.00
2023-05-02T21:23:34.336Z,100.00
2023-05-02T21:25:39.401Z,100.00
2023-05-02T21:27:44.387Z,100.00
2023-05-02T21:29:52.085Z,100.00
2023-05-02T21:31:57.043Z,100.00
2023-05-02T21:34:02.484Z,100.00
2023-05-02T21:36:07.926Z,100.00
2023-05-02T21:38:13.058Z,100.00
2023-05-02T21:40:17.837Z,100.00
2023-05-02T21:42:22.783Z,100.00
2023-05-02T21:44:27.891Z,100.00
2023-05-02T21:46:35.786Z,100.00
2023-05-02T21:48:40.908Z,100.00
2023-05-02T21:50:46.558Z,100.00
2023-05-02T21:52:51.476Z,100.00
2023-05-02T21:54:56.444Z,100.00
2023-05-02T21:57:02.932Z,100.00
2023-05-02T21:59:07.898Z,100.00
2023-05-02T22:01:12.861Z,100.00
2023-05-02T22:03:20.624Z,100.00
2023-05-02T22:05:25.543Z,100.00
2023-05-02T22:07:30.528Z,100.00
2023-05-02T22:09:35.532Z,100.00
2023-05-02T22:11:40.472Z,100.00
2023-05-02T22:13:45.636Z,100.00
2023-05-02T22:15:51.291Z,100.00
2023-05-02T22:17:56.270Z,100.00
2023-05-02T22:20:04.436Z,100.00
2023-05-02T22:22:09.651Z,100.00
2023-05-02T22:24:14.633Z,100.00
2023-05-02T22:26:19.531Z,100.00
2023-05-02T22:28:24.528Z,100.00
2023-05-02T22:30:29.465Z,100.00
2023-05-02T22:32:34.390Z,100.00
2023-05-02T22:34:39.375Z,100.00
2023-05-02T22:36:46.964Z,100.00
2023-05-02T22:38:51.916Z,100.00
2023-05-02T22:40:56.853Z,100.00
2023-05-02T22:43:02.035Z,100.00
2023-05-02T22:45:07.833Z,100.00
2023-05-02T22:47:12.769Z,100.00
2023-05-02T22:49:19.967Z,100.00
2023-05-02T22:51:25.756Z,100.00
2023-05-02T22:53:33.543Z,100.00
2023-05-02T22:55:40.009Z,100.00
2023-05-02T22:57:45.213Z,100.00
2023-05-02T22:59:49.973Z,100.00
2023-05-02T23:01:54.907Z,100.00
2023-05-02T23:03:59.895Z,100.00
2023-05-02T23:06:04.863Z,100.00
2023-05-02T23:08:09.794Z,100.00
2023-05-02T23:10:17.730Z,100.00
2023-05-02T23:12:22.712Z,100.00
2023-05-02T23:14:27.672Z,100.00
2023-05-02T23:16:32.699Z,100.00
2023-05-02T23:18:37.726Z,100.00
2023-05-02T23:20:42.661Z,100.00
2023-05-02T23:22:48.683Z,100.00
2023-05-02T23:24:53.867Z,100.00
2023-05-02T23:27:01.479Z,100.00
2023-05-02T23:29:06.583Z,100.00
2023-05-02T23:31:12.083Z,100.00
2023-05-02T23:33:17.659Z,100.00
2023-05-02T23:35:23.432Z,100.00
2023-05-02T23:37:29.452Z,100.00
2023-05-02T23:39:34.528Z,100.00
2023-05-02T23:41:39.549Z,100.00
2023-05-02T23:43:47.168Z,100.00
2023-05-02T23:45:52.144Z,100.00
2023-05-02T23:47:57.204Z,100.00
2023-05-02T23:50:02.320Z,100.00
2023-05-02T23:52:07.654Z,100.00
2023-05-02T23:54:12.868Z,100.00
2023-05-02T23:56:17.547Z,100.00
2023-05-02T23:58:22.538Z,100.00
